• Join FlightAware (Why Join?)
  • Login
  • US Flag 
09:59PM EDT


 

Airport Tracker/Info


-or-


 

Live Flight TrackerFlight Track Log ✈ VH-RWT ✈ 13-Jul-2013 ✈ YPJT / JAD - YPJT / JAD

Flight Track Log - Related Links

Times and Time Zones

All times are in EDT time to prevent confusion due to time zone crossing. See the VH-RWT flight status page for this flight to view local times or setup timezone preferences in your user account.

Time Position Orientation Groundspeed Altitude Reporting Facility
EDT Latitude Longitude Course Direction KTS MPH feet Rate Location/Type
03:03AM -32.0579 115.7909 294° West 84 97 1,500  Level Aus ATC (RADAR)
03:03AM -32.0522 115.7760 294° West 84 97 1,600  Climbing Aus ATC (RADAR)
03:04AM -32.0363 115.7698 342° North 90 104 1,500 -120 Descending Aus ATC (RADAR)
03:04AM -32.0242 115.7690 357° North 87 100 1,500 60 Level Aus ATC (RADAR)
03:05AM -32.0100 115.7698 North 87 100 1,600 60 Climbing Aus ATC (RADAR)
03:06AM -31.9954 115.7720 North 90 104 1,600  Level Aus ATC (RADAR)
03:06AM -31.9807 115.7733 North 88 101 1,600 60 Level Aus ATC (RADAR)
03:07AM -31.9803 115.7601 272° West 87 100 1,700 -120 Climbing Aus ATC (RADAR)
03:07AM -31.9996 115.7584 184° South 117 135 1,500 -300 Descending Aus ATC (RADAR)
03:08AM -32.0111 115.7701 139° Southeast 113 130 1,400  Descending Aus ATC (RADAR)
03:08AM -32.0020 115.7872 58° Northeast 99 114 1,500 120 Climbing Aus ATC (RADAR)
03:09AM -31.9913 115.8049 54° Northeast 97 112 1,600 60 Climbing Aus ATC (RADAR)
03:09AM -31.9819 115.8185 51° Northeast 104 120 1,600 -120 Level Aus ATC (RADAR)
03:10AM -31.9713 115.8350 53° Northeast 106 122 1,500 -120 Descending Aus ATC (RADAR)
03:11AM -31.9667 115.8548 75° East 107 123 1,500  Level Aus ATC (RADAR)
03:11AM -31.9680 115.8721 95° East 104 120 1,500 60 Level Aus ATC (RADAR)
03:12AM -31.9599 115.8871 58° Northeast 99 114 1,600 60 Climbing Aus ATC (RADAR)
03:12AM -31.9506 115.8752 313° West 87 100 1,600 -120 Level Aus ATC (RADAR)
03:13AM -31.9446 115.8615 297° West 91 105 1,500 -120 Descending Aus ATC (RADAR)
03:13AM -31.9380 115.8465 297° West 85 98 1,500 60 Level Aus ATC (RADAR)
03:14AM -31.9315 115.8290 294° West 85 98 1,600 60 Climbing Aus ATC (RADAR)
03:15AM -31.9255 115.8170 300° West 84 97 1,600  Level Aus ATC (RADAR)
03:15AM -31.9187 115.8020 298° West 87 100 1,600  Level Aus ATC (RADAR)
03:15AM -31.9147 115.7936 159° South 86 99 1,600  Level Aus ATC (RADAR)
03:17AM -31.9361 115.8097 159° South  Level Estimated
03:18AM -31.8952 115.7565 302° West  Level FlightAware Approximate
03:25AM -32.0038 115.7559 180° South  Level FlightAware Approximate
03:26AM -32.0221 115.7561 180° South  Level FlightAware Approximate
03:27AM -32.0405 115.7562 180° South  Level FlightAware Approximate
03:28AM -32.0588 115.7564 180° South  Level FlightAware Approximate
03:29AM -32.0772 115.7565 180° South  Level FlightAware Approximate
03:30AM -32.0953 115.7570 90° East  Level FlightAware Approximate
03:31AM -32.0953 115.7787 90° East  Level FlightAware Approximate
03:32AM -32.0953 115.8004 90° East  Level FlightAware Approximate
03:33AM -32.0954 115.8221 92° East  Level FlightAware Approximate
03:34AM -32.0962 115.8437 92° East  Level FlightAware Approximate
03:35AM -32.0969 115.8654 92° East  Level FlightAware Approximate
03:36AM -32.0975 115.8812 92° East  Level FlightAware Approximate
03:37AM -32.0975 115.8811 92° East  Level Estimated
03:38AM -32.0975 115.8811 92° East  Level Estimated
03:39AM -32.0975 115.8811 92° East  Level Estimated
03:40AM -32.0975 115.8811 92° East  Level Estimated
03:41AM -32.0975 115.8811 92° East  Level Estimated
03:42AM -32.0975 115.8811 92° East  Level Estimated
03:43AM -32.0975 115.8811 92° East  Level Estimated
03:44AM -32.0975 115.8811 92° East  Level Estimated
03:45AM -32.0975 115.8811 92° East  Level Estimated
03:46AM -32.0975 115.8811 92° East  Level Estimated
03:47AM -32.0975 115.8811 92° East  Level Estimated
03:48AM -32.0975 115.8811 92° East  Level Estimated
03:49AM -32.0975 115.8811 92° East  Level Estimated
03:50AM -32.0975 115.8811 92° East  Level Estimated
03:51AM -32.0975 115.8811 92° East  Level Estimated
03:52AM -32.0975 115.8811 92° East  Level Estimated